sensor_id;sensor_type;location;lat;lon;timestamp;pressure;altitude;pressure_sealevel;temperature;humidity
55044;BME280;54902;50.420;18.854;2023-07-30T00:00:21;100697.50;;;19.78;66.47
55044;BME280;54902;50.420;18.854;2023-07-30T00:00:52;100693.88;;;19.78;66.48
55044;BME280;54902;50.420;18.854;2023-07-30T00:01:23;100697.50;;;19.78;66.47
55044;BME280;54902;50.420;18.854;2023-07-30T00:01:54;100702.20;;;19.78;66.56
55044;BME280;54902;50.420;18.854;2023-07-30T00:02:25;100697.50;;;19.78;66.67
55044;BME280;54902;50.420;18.854;2023-07-30T00:02:56;100693.68;;;19.79;66.66
55044;BME280;54902;50.420;18.854;2023-07-30T00:03:27;100685.56;;;19.78;66.58
55044;BME280;54902;50.420;18.854;2023-07-30T00:03:59;100687.29;;;19.79;66.56
55044;BME280;54902;50.420;18.854;2023-07-30T00:04:29;100690.22;;;19.77;66.61
55044;BME280;54902;50.420;18.854;2023-07-30T00:05:00;100691.95;;;19.78;66.65
55044;BME280;54902;50.420;18.854;2023-07-30T00:05:31;100690.22;;;19.77;66.67
55044;BME280;54902;50.420;18.854;2023-07-30T00:06:02;100691.11;;;19.78;66.69
55044;BME280;54902;50.420;18.854;2023-07-30T00:06:33;100697.50;;;19.78;66.75
55044;BME280;54902;50.420;18.854;2023-07-30T00:07:04;100691.95;;;19.78;66.72
55044;BME280;54902;50.420;18.854;2023-07-30T00:07:35;100697.50;;;19.78;66.75
55044;BME280;54902;50.420;18.854;2023-07-30T00:08:06;100696.64;;;19.78;66.82
55044;BME280;54902;50.420;18.854;2023-07-30T00:08:37;100695.77;;;19.77;66.88
55044;BME280;54902;50.420;18.854;2023-07-30T00:09:08;100691.95;;;19.78;66.86
55044;BME280;54902;50.420;18.854;2023-07-30T00:09:39;100695.77;;;19.77;66.84
55044;BME280;54902;50.420;18.854;2023-07-30T00:10:10;100693.00;;;19.77;66.82
55044;BME280;54902;50.420;18.854;2023-07-30T00:10:41;100690.22;;;19.77;66.83
55044;BME280;54902;50.420;18.854;2023-07-30T00:11:12;100689.37;;;19.77;66.81
55044;BME280;54902;50.420;18.854;2023-07-30T00:11:43;100694.07;;;19.76;66.82
55044;BME280;54902;50.420;18.854;2023-07-30T00:12:14;100692.15;;;19.77;66.79
55044;BME280;54902;50.420;18.854;2023-07-30T00:12:45;100697.70;;;19.77;66.80
55044;BME280;54902;50.420;18.854;2023-07-30T00:13:16;100689.37;;;19.77;66.82
55044;BME280;54902;50.420;18.854;2023-07-30T00:13:47;100688.52;;;19.76;66.89
55044;BME280;54902;50.420;18.854;2023-07-30T00:14:18;100692.34;;;19.75;66.90
55044;BME280;54902;50.420;18.854;2023-07-30T00:14:49;100700.47;;;19.77;66.89
55044;BME280;54902;50.420;18.854;2023-07-30T00:15:20;100697.89;;;19.75;66.84
55044;BME280;54902;50.420;18.854;2023-07-30T00:15:51;100700.66;;;19.75;66.86
55044;BME280;54902;50.420;18.854;2023-07-30T00:16:22;100697.89;;;19.75;66.95
55044;BME280;54902;50.420;18.854;2023-07-30T00:16:55;100702.58;;;19.75;66.88
55044;BME280;54902;50.420;18.854;2023-07-30T00:17:26;100697.03;;;19.75;66.95
55044;BME280;54902;50.420;18.854;2023-07-30T00:17:57;100701.70;;;19.74;66.90
55044;BME280;54902;50.420;18.854;2023-07-30T00:18:28;100687.84;;;19.74;66.88
55044;BME280;54902;50.420;18.854;2023-07-30T00:18:59;100700.85;;;19.74;66.90
55044;BME280;54902;50.420;18.854;2023-07-30T00:19:30;100698.93;;;19.74;66.88
55044;BME280;54902;50.420;18.854;2023-07-30T00:20:01;100698.93;;;19.74;66.92
55044;BME280;54902;50.420;18.854;2023-07-30T00:20:36;100697.20;;;19.73;66.91
55044;BME280;54902;50.420;18.854;2023-07-30T00:21:07;100694.43;;;19.73;66.95
55044;BME280;54902;50.420;18.854;2023-07-30T00:21:38;100699.97;;;19.73;66.97
55044;BME280;54902;50.420;18.854;2023-07-30T00:22:09;100704.66;;;19.73;66.96
55044;BME280;54902;50.420;18.854;2023-07-30T00:22:40;100703.81;;;19.72;66.95
55044;BME280;54902;50.420;18.854;2023-07-30T00:23:10;100701.05;;;19.72;67.04
55044;BME280;54902;50.420;18.854;2023-07-30T00:23:41;100700.16;;;19.72;66.99
55044;BME280;54902;50.420;18.854;2023-07-30T00:24:13;100703.81;;;19.72;66.99
55044;BME280;54902;50.420;18.854;2023-07-30T00:24:44;100696.54;;;19.71;66.99
55044;BME280;54902;50.420;18.854;2023-07-30T00:25:15;100701.24;;;19.71;67.02
55044;BME280;54902;50.420;18.854;2023-07-30T00:25:46;100696.54;;;19.71;67.01
55044;BME280;54902;50.420;18.854;2023-07-30T00:26:17;100699.31;;;19.71;66.98
55044;BME280;54902;50.420;18.854;2023-07-30T00:26:48;100706.79;;;19.71;66.97
55044;BME280;54902;50.420;18.854;2023-07-30T00:27:18;100699.52;;;19.70;67.08
55044;BME280;54902;50.420;18.854;2023-07-30T00:27:49;100693.97;;;19.70;67.04
55044;BME280;54902;50.420;18.854;2023-07-30T00:28:20;100699.52;;;19.70;67.05
55044;BME280;54902;50.420;18.854;2023-07-30T00:28:51;100698.63;;;19.69;67.02
55044;BME280;54902;50.420;18.854;2023-07-30T00:29:22;100698.63;;;19.69;67.02
55044;BME280;54902;50.420;18.854;2023-07-30T00:29:53;100695.86;;;19.69;67.03
55044;BME280;54902;50.420;18.854;2023-07-30T00:30:24;100698.63;;;19.69;67.06
55044;BME280;54902;50.420;18.854;2023-07-30T00:30:55;100696.93;;;19.68;67.06
55044;BME280;54902;50.420;18.854;2023-07-30T00:31:26;100692.42;;;19.67;67.11
55044;BME280;54902;50.420;18.854;2023-07-30T00:31:57;100690.50;;;19.68;67.12
55044;BME280;54902;50.420;18.854;2023-07-30T00:32:27;100693.27;;;19.68;67.06
55044;BME280;54902;50.420;18.854;2023-07-30T00:32:58;100683.22;;;19.67;67.10
55044;BME280;54902;50.420;18.854;2023-07-30T00:33:29;100682.19;;;19.68;67.09
55044;BME280;54902;50.420;18.854;2023-07-30T00:34:00;100687.91;;;19.66;67.09
55044;BME280;54902;50.420;18.854;2023-07-30T00:34:31;100683.22;;;19.67;67.07
55044;BME280;54902;50.420;18.854;2023-07-30T00:35:02;100688.97;;;19.65;67.08
55044;BME280;54902;50.420;18.854;2023-07-30T00:35:34;100691.74;;;19.65;67.12
55044;BME280;54902;50.420;18.854;2023-07-30T00:36:05;100677.88;;;19.65;67.14
55044;BME280;54902;50.420;18.854;2023-07-30T00:36:36;100683.41;;;19.65;67.15
55044;BME280;54902;50.420;18.854;2023-07-30T00:37:06;100688.11;;;19.65;67.23
55044;BME280;54902;50.420;18.854;2023-07-30T00:37:37;100690.04;;;19.64;67.21
55044;BME280;54902;50.420;18.854;2023-07-30T00:38:08;100690.04;;;19.64;67.18
55044;BME280;54902;50.420;18.854;2023-07-30T00:38:39;100691.09;;;19.63;67.15
55044;BME280;54902;50.420;18.854;2023-07-30T00:39:10;100686.58;;;19.62;67.14
55044;BME280;54902;50.420;18.854;2023-07-30T00:39:41;100689.36;;;19.62;67.16
55044;BME280;54902;50.420;18.854;2023-07-30T00:40:12;100692.12;;;19.62;67.15
55044;BME280;54902;50.420;18.854;2023-07-30T00:40:43;100694.05;;;19.62;67.16
55044;BME280;54902;50.420;18.854;2023-07-30T00:41:14;100695.94;;;19.61;67.16
55044;BME280;54902;50.420;18.854;2023-07-30T00:41:45;100698.71;;;19.61;67.22
55044;BME280;54902;50.420;18.854;2023-07-30T00:42:16;100699.79;;;19.60;67.20
55044;BME280;54902;50.420;18.854;2023-07-30T00:42:47;100699.79;;;19.60;67.19
55044;BME280;54902;50.420;18.854;2023-07-30T00:43:18;100699.79;;;19.60;67.21
55044;BME280;54902;50.420;18.854;2023-07-30T00:43:49;100705.33;;;19.60;67.18
55044;BME280;54902;50.420;18.854;2023-07-30T00:44:20;100709.99;;;19.60;67.20
55044;BME280;54902;50.420;18.854;2023-07-30T00:44:51;100703.60;;;19.59;67.23
55044;BME280;54902;50.420;18.854;2023-07-30T00:45:22;100710.18;;;19.58;67.24
55044;BME280;54902;50.420;18.854;2023-07-30T00:45:52;100697.05;;;19.52;67.22
55044;BME280;54902;50.420;18.854;2023-07-30T00:46:24;100711.23;;;19.57;67.27
55044;BME280;54902;50.420;18.854;2023-07-30T00:46:55;100709.52;;;19.56;67.23
55044;BME280;54902;50.420;18.854;2023-07-30T00:47:26;100715.07;;;19.56;67.24
55044;BME280;54902;50.420;18.854;2023-07-30T00:47:58;100715.07;;;19.56;67.24
55044;BME280;54902;50.420;18.854;2023-07-30T00:48:29;100713.34;;;19.55;67.25
55044;BME280;54902;50.420;18.854;2023-07-30T00:49:01;100715.23;;;19.55;67.31
55044;BME280;54902;50.420;18.854;2023-07-30T00:49:32;100715.41;;;19.53;67.36
55044;BME280;54902;50.420;18.854;2023-07-30T00:50:04;100720.96;;;19.53;67.35
55044;BME280;54902;50.420;18.854;2023-07-30T00:50:36;100720.13;;;19.53;67.39
55044;BME280;54902;50.420;18.854;2023-07-30T00:51:07;100726.51;;;19.53;67.38
55044;BME280;54902;50.420;18.854;2023-07-30T00:51:41;100730.31;;;19.52;67.36
55044;BME280;54902;50.420;18.854;2023-07-30T00:52:13;100724.13;;;19.50;67.37
55044;BME280;54902;50.420;18.854;2023-07-30T00:52:44;100729.66;;;19.50;67.38
55044;BME280;54902;50.420;18.854;2023-07-30T00:53:16;100726.05;;;19.50;67.33
55044;BME280;54902;50.420;18.854;2023-07-30T00:53:50;100730.70;;;19.49;67.38
55044;BME280;54902;50.420;18.854;2023-07-30T00:54:21;100726.20;;;19.48;67.37
55044;BME280;54902;50.420;18.854;2023-07-30T00:54:54;100732.82;;;19.47;67.39
55044;BME280;54902;50.420;18.854;2023-07-30T00:55:26;100731.09;;;19.46;67.41
55044;BME280;54902;50.420;18.854;2023-07-30T00:55:57;100730.04;;;19.47;67.41
55044;BME280;54902;50.420;18.854;2023-07-30T00:56:28;100733.85;;;19.46;67.38
55044;BME280;54902;50.420;18.854;2023-07-30T00:57:01;100736.63;;;19.46;67.38
55044;BME280;54902;50.420;18.854;2023-07-30T00:57:32;100732.13;;;19.45;67.38
55044;BME280;54902;50.420;18.854;2023-07-30T00:58:04;100721.80;;;19.39;67.40
55044;BME280;54902;50.420;18.854;2023-07-30T00:58:35;100738.71;;;19.44;67.43
55044;BME280;54902;50.420;18.854;2023-07-30T00:59:07;100725.04;;;19.43;67.44
55044;BME280;54902;50.420;18.854;2023-07-30T00:59:38;100736.13;;;19.43;67.42
55044;BME280;54902;50.420;18.854;2023-07-30T01:00:09;100728.88;;;19.42;67.42
55044;BME280;54902;50.420;18.854;2023-07-30T01:00:41;100738.05;;;19.42;67.48
55044;BME280;54902;50.420;18.854;2023-07-30T01:01:12;100730.77;;;19.41;67.50
55044;BME280;54902;50.420;18.854;2023-07-30T01:01:46;100736.31;;;19.41;67.47
55044;BME280;54902;50.420;18.854;2023-07-30T01:02:17;100736.51;;;19.40;67.52
55044;BME280;54902;50.420;18.854;2023-07-30T01:02:48;100741.20;;;19.39;67.56
55044;BME280;54902;50.420;18.854;2023-07-30T01:03:19;100745.86;;;19.39;67.55
55044;BME280;54902;50.420;18.854;2023-07-30T01:03:50;100739.47;;;19.38;67.57
55044;BME280;54902;50.420;18.854;2023-07-30T01:04:21;100737.73;;;19.37;67.58
55044;BME280;54902;50.420;18.854;2023-07-30T01:04:52;100739.66;;;19.37;67.65
55044;BME280;54902;50.420;18.854;2023-07-30T01:05:24;100749.86;;;19.36;67.60
55044;BME280;54902;50.420;18.854;2023-07-30T01:05:56;100750.94;;;19.35;67.74
55044;BME280;54902;50.420;18.854;2023-07-30T01:06:27;100750.94;;;19.35;67.65
55044;BME280;54902;50.420;18.854;2023-07-30T01:06:58;100751.09;;;19.34;67.62
55044;BME280;54902;50.420;18.854;2023-07-30T01:07:32;100744.70;;;19.33;67.61
55044;BME280;54902;50.420;18.854;2023-07-30T01:08:03;100738.84;;;19.28;67.54
55044;BME280;54902;50.420;18.854;2023-07-30T01:08:34;100750.43;;;19.32;67.66
55044;BME280;54902;50.420;18.854;2023-07-30T01:09:06;100755.12;;;19.31;67.63
55044;BME280;54902;50.420;18.854;2023-07-30T01:09:37;100747.16;;;19.28;67.66
55044;BME280;54902;50.420;18.854;2023-07-30T01:10:08;100757.20;;;19.29;67.61
55044;BME280;54902;50.420;18.854;2023-07-30T01:10:41;100754.62;;;19.28;67.65
55044;BME280;54902;50.420;18.854;2023-07-30T01:11:12;100756.50;;;19.27;67.66
55044;BME280;54902;50.420;18.854;2023-07-30T01:11:45;100753.92;;;19.26;67.62
55044;BME280;54902;50.420;18.854;2023-07-30T01:12:17;100763.12;;;19.27;67.65
55044;BME280;54902;50.420;18.854;2023-07-30T01:12:48;100756.70;;;19.26;67.68
55044;BME280;54902;50.420;18.854;2023-07-30T01:13:19;100756.04;;;19.24;67.67
55044;BME280;54902;50.420;18.854;2023-07-30T01:13:50;100752.38;;;19.24;67.67
55044;BME280;54902;50.420;18.854;2023-07-30T01:14:22;100755.34;;;19.22;67.69
55044;BME280;54902;50.420;18.854;2023-07-30T01:14:55;100755.34;;;19.22;67.75
55044;BME280;54902;50.420;18.854;2023-07-30T01:15:28;100755.34;;;19.22;67.78
55044;BME280;54902;50.420;18.854;2023-07-30T01:15:59;100758.30;;;19.21;67.74
55044;BME280;54902;50.420;18.854;2023-07-30T01:16:30;100756.57;;;19.20;67.76
55044;BME280;54902;50.420;18.854;2023-07-30T01:17:01;100746.55;;;19.19;67.81
55044;BME280;54902;50.420;18.854;2023-07-30T01:17:33;100757.83;;;19.17;67.83
55044;BME280;54902;50.420;18.854;2023-07-30T01:18:04;100753.14;;;19.18;67.78
55044;BME280;54902;50.420;18.854;2023-07-30T01:18:35;100763.52;;;19.16;67.98
55044;BME280;54902;50.420;18.854;2023-07-30T01:19:06;100768.03;;;19.17;67.91
55044;BME280;54902;50.420;18.854;2023-07-30T01:19:38;100763.71;;;19.14;67.90
55044;BME280;54902;50.420;18.854;2023-07-30T01:20:10;100761.13;;;19.13;67.84
55044;BME280;54902;50.420;18.854;2023-07-30T01:20:42;100765.63;;;19.14;67.91
55044;BME280;54902;50.420;18.854;2023-07-30T01:21:13;100773.25;;;19.12;67.90
55044;BME280;54902;50.420;18.854;2023-07-30T01:21:44;100757.70;;;19.11;67.94
55044;BME280;54902;50.420;18.854;2023-07-30T01:22:15;100763.24;;;19.11;67.99
55044;BME280;54902;50.420;18.854;2023-07-30T01:22:46;100767.05;;;19.10;67.95
55044;BME280;54902;50.420;18.854;2023-07-30T01:23:18;100767.05;;;19.10;68.09
55044;BME280;54902;50.420;18.854;2023-07-30T01:23:48;100764.47;;;19.08;68.04
55044;BME280;54902;50.420;18.854;2023-07-30T01:24:19;100767.42;;;19.07;68.03
55044;BME280;54902;50.420;18.854;2023-07-30T01:24:51;100763.77;;;19.06;68.01
55044;BME280;54902;50.420;18.854;2023-07-30T01:25:24;100765.70;;;19.06;68.09
55044;BME280;54902;50.420;18.854;2023-07-30T01:26:06;100763.92;;;19.05;68.14
55044;BME280;54902;50.420;18.854;2023-07-30T01:26:43;100767.73;;;19.04;68.15
55044;BME280;54902;50.420;18.854;2023-07-30T01:27:25;100766.00;;;19.03;68.21
55044;BME280;54902;50.420;18.854;2023-07-30T01:27:59;100768.96;;;19.01;68.26
55044;BME280;54902;50.420;18.854;2023-07-30T01:28:40;100760.83;;;19.00;68.20
55044;BME280;54902;50.420;18.854;2023-07-30T01:29:18;100767.41;;;18.99;68.12
55044;BME280;54902;50.420;18.854;2023-07-30T01:29:53;100769.33;;;18.98;68.12
55044;BME280;54902;50.420;18.854;2023-07-30T01:30:29;100769.52;;;18.97;68.12
55044;BME280;54902;50.420;18.854;2023-07-30T01:31:02;100773.32;;;18.96;68.18
55044;BME280;54902;50.420;18.854;2023-07-30T01:31:34;100772.65;;;18.94;68.13
55044;BME280;54902;50.420;18.854;2023-07-30T01:32:08;100774.54;;;18.93;68.12
55044;BME280;54902;50.420;18.854;2023-07-30T01:32:40;100772.65;;;18.94;68.10
55044;BME280;54902;50.420;18.854;2023-07-30T01:33:12;100774.73;;;18.92;68.10
55044;BME280;54902;50.420;18.854;2023-07-30T01:33:47;100764.02;;;18.89;68.16
55044;BME280;54902;50.420;18.854;2023-07-30T01:34:20;100770.23;;;18.91;68.18
55044;BME280;54902;50.420;18.854;2023-07-30T01:34:54;100775.77;;;18.91;68.10
55044;BME280;54902;50.420;18.854;2023-07-30T01:35:27;100774.22;;;18.88;68.09
55044;BME280;54902;50.420;18.854;2023-07-30T01:35:59;100767.83;;;18.88;68.11
55044;BME280;54902;50.420;18.854;2023-07-30T01:36:31;100773.37;;;18.88;68.10
55044;BME280;54902;50.420;18.854;2023-07-30T01:37:04;100767.83;;;18.88;68.15
55044;BME280;54902;50.420;18.854;2023-07-30T01:37:37;100767.16;;;18.86;68.16
55044;BME280;54902;50.420;18.854;2023-07-30T01:38:10;100769.94;;;18.86;68.18
55044;BME280;54902;50.420;18.854;2023-07-30T01:38:43;100763.52;;;18.85;68.15
55044;BME280;54902;50.420;18.854;2023-07-30T01:39:14;100770.09;;;18.84;68.13
55044;BME280;54902;50.420;18.854;2023-07-30T01:39:46;100762.85;;;18.83;68.17
55044;BME280;54902;50.420;18.854;2023-07-30T01:40:19;100771.16;;;18.83;68.17
55044;BME280;54902;50.420;18.854;2023-07-30T01:40:50;100774.11;;;18.82;68.17
55044;BME280;54902;50.420;18.854;2023-07-30T01:41:22;100774.11;;;18.82;68.17
55044;BME280;54902;50.420;18.854;2023-07-30T01:41:55;100773.23;;;18.81;68.18
55044;BME280;54902;50.420;18.854;2023-07-30T01:42:29;100777.03;;;18.80;68.16
55044;BME280;54902;50.420;18.854;2023-07-30T01:43:01;100776.19;;;18.80;68.18
55044;BME280;54902;50.420;18.854;2023-07-30T01:43:32;100787.25;;;18.80;68.17
55044;BME280;54902;50.420;18.854;2023-07-30T01:44:03;100774.45;;;18.79;68.17
55044;BME280;54902;50.420;18.854;2023-07-30T01:44:34;100777.22;;;18.79;68.17
55044;BME280;54902;50.420;18.854;2023-07-30T01:45:06;100772.72;;;18.78;68.20
55044;BME280;54902;50.420;18.854;2023-07-30T01:45:37;100778.25;;;18.78;68.20
55044;BME280;54902;50.420;18.854;2023-07-30T01:46:10;100780.17;;;18.77;68.19
55044;BME280;54902;50.420;18.854;2023-07-30T01:46:41;100779.32;;;18.77;68.17
55044;BME280;54902;50.420;18.854;2023-07-30T01:47:12;100774.81;;;18.76;68.21
55044;BME280;54902;50.420;18.854;2023-07-30T01:47:43;100774.81;;;18.76;68.19
55044;BME280;54902;50.420;18.854;2023-07-30T01:48:14;100775.85;;;18.75;68.20
55044;BME280;54902;50.420;18.854;2023-07-30T01:48:45;100776.89;;;18.74;68.23
55044;BME280;54902;50.420;18.854;2023-07-30T01:49:16;100777.96;;;18.73;68.23
55044;BME280;54902;50.420;18.854;2023-07-30T01:49:46;100780.73;;;18.73;68.24
55044;BME280;54902;50.420;18.854;2023-07-30T01:50:17;100778.99;;;18.72;68.24
55044;BME280;54902;50.420;18.854;2023-07-30T01:50:48;100785.56;;;18.71;68.26
55044;BME280;54902;50.420;18.854;2023-07-30T01:51:19;100776.41;;;18.70;68.27
55044;BME280;54902;50.420;18.854;2023-07-30T01:51:50;100787.48;;;18.70;68.26
55044;BME280;54902;50.420;18.854;2023-07-30T01:52:21;100788.52;;;18.69;68.29
55044;BME280;54902;50.420;18.854;2023-07-30T01:52:52;100786.79;;;18.68;68.32
55044;BME280;54902;50.420;18.854;2023-07-30T01:53:23;100784.02;;;18.68;68.32
55044;BME280;54902;50.420;18.854;2023-07-30T01:53:54;100788.70;;;18.68;68.28
55044;BME280;54902;50.420;18.854;2023-07-30T01:54:25;100786.97;;;18.67;68.36
55044;BME280;54902;50.420;18.854;2023-07-30T01:54:56;100788.88;;;18.67;68.34
55044;BME280;54902;50.420;18.854;2023-07-30T01:55:31;100788.00;;;18.66;68.34
55044;BME280;54902;50.420;18.854;2023-07-30T01:56:02;100787.34;;;18.64;68.30
55044;BME280;54902;50.420;18.854;2023-07-30T01:56:32;100790.11;;;18.64;68.33
55044;BME280;54902;50.420;18.854;2023-07-30T01:57:04;100780.07;;;18.63;68.34
55044;BME280;54902;50.420;18.854;2023-07-30T01:57:35;100786.64;;;18.62;68.32
55044;BME280;54902;50.420;18.854;2023-07-30T01:58:06;100782.17;;;18.61;68.32
55044;BME280;54902;50.420;18.854;2023-07-30T01:58:36;100784.94;;;18.61;68.34
55044;BME280;54902;50.420;18.854;2023-07-30T01:59:07;100779.39;;;18.61;68.34
55044;BME280;54902;50.420;18.854;2023-07-30T01:59:38;100781.47;;;18.59;68.35
55044;BME280;54902;50.420;18.854;2023-07-30T02:00:10;100784.23;;;18.59;68.37
55044;BME280;54902;50.420;18.854;2023-07-30T02:00:41;100776.98;;;18.58;68.37
55044;BME280;54902;50.420;18.854;2023-07-30T02:01:12;100776.12;;;18.58;68.39
55044;BME280;54902;50.420;18.854;2023-07-30T02:01:43;100772.50;;;18.57;68.40
55044;BME280;54902;50.420;18.854;2023-07-30T02:02:14;100770.77;;;18.56;68.36
55044;BME280;54902;50.420;18.854;2023-07-30T02:02:45;100772.17;;;18.52;68.35
55044;BME280;54902;50.420;18.854;2023-07-30T02:03:16;100772.84;;;18.54;68.42
55044;BME280;54902;50.420;18.854;2023-07-30T02:03:47;100773.90;;;18.53;68.39
55044;BME280;54902;50.420;18.854;2023-07-30T02:04:17;100768.37;;;18.53;68.40
55044;BME280;54902;50.420;18.854;2023-07-30T02:04:48;100772.17;;;18.52;68.40
55044;BME280;54902;50.420;18.854;2023-07-30T02:05:19;100773.20;;;18.51;68.40
55044;BME280;54902;50.420;18.854;2023-07-30T02:05:50;100775.13;;;18.51;68.42
55044;BME280;54902;50.420;18.854;2023-07-30T02:06:21;100777.01;;;18.50;68.42
55044;BME280;54902;50.420;18.854;2023-07-30T02:06:52;100780.80;;;18.49;68.42
55044;BME280;54902;50.420;18.854;2023-07-30T02:07:23;100778.92;;;18.50;68.45
55044;BME280;54902;50.420;18.854;2023-07-30T02:07:54;100769.91;;;18.48;68.41
55044;BME280;54902;50.420;18.854;2023-07-30T02:08:25;100778.22;;;18.48;68.41
55044;BME280;54902;50.420;18.854;2023-07-30T02:08:56;100775.63;;;18.46;68.39
55044;BME280;54902;50.420;18.854;2023-07-30T02:09:27;100775.63;;;18.46;68.40
55044;BME280;54902;50.420;18.854;2023-07-30T02:09:58;100777.55;;;18.46;68.39
55044;BME280;54902;50.420;18.854;2023-07-30T02:10:29;100772.20;;;18.44;68.40
55044;BME280;54902;50.420;18.854;2023-07-30T02:11:00;100772.20;;;18.44;68.39
55044;BME280;54902;50.420;18.854;2023-07-30T02:11:31;100773.23;;;18.43;68.40
55044;BME280;54902;50.420;18.854;2023-07-30T02:12:02;100776.01;;;18.43;68.42
55044;BME280;54902;50.420;18.854;2023-07-30T02:12:33;100777.04;;;18.42;68.40
55044;BME280;54902;50.420;18.854;2023-07-30T02:13:03;100777.04;;;18.42;68.38
55044;BME280;54902;50.420;18.854;2023-07-30T02:13:34;100755.97;;;18.33;68.37
55044;BME280;54902;50.420;18.854;2023-07-30T02:14:05;100774.45;;;18.41;68.38
55044;BME280;54902;50.420;18.854;2023-07-30T02:14:36;100770.84;;;18.40;68.36
55044;BME280;54902;50.420;18.854;2023-07-30T02:15:07;100768.06;;;18.40;68.35
55044;BME280;54902;50.420;18.854;2023-07-30T02:15:41;100775.48;;;18.40;68.35
55044;BME280;54902;50.420;18.854;2023-07-30T02:16:12;100767.18;;;18.40;68.36
55044;BME280;54902;50.420;18.854;2023-07-30T02:16:43;100775.66;;;18.38;68.39
55044;BME280;54902;50.420;18.854;2023-07-30T02:17:14;100767.38;;;18.38;68.43
55044;BME280;54902;50.420;18.854;2023-07-30T02:17:45;100779.28;;;18.39;68.40
55044;BME280;54902;50.420;18.854;2023-07-30T02:18:16;100772.90;;;18.38;68.46
55044;BME280;54902;50.420;18.854;2023-07-30T02:18:47;100768.41;;;18.37;68.42
55044;BME280;54902;50.420;18.854;2023-07-30T02:19:18;100773.93;;;18.37;68.41
55044;BME280;54902;50.420;18.854;2023-07-30T02:19:49;100773.93;;;18.37;68.39
55044;BME280;54902;50.420;18.854;2023-07-30T02:20:20;100775.85;;;18.37;68.38
55044;BME280;54902;50.420;18.854;2023-07-30T02:20:51;100768.59;;;18.36;68.40
55044;BME280;54902;50.420;18.854;2023-07-30T02:21:22;100771.54;;;18.34;68.37
55044;BME280;54902;50.420;18.854;2023-07-30T02:21:53;100776.88;;;18.36;68.38
55044;BME280;54902;50.420;18.854;2023-07-30T02:22:24;100774.30;;;18.34;68.35
55044;BME280;54902;50.420;18.854;2023-07-30T02:22:55;100775.16;;;18.35;68.40
55044;BME280;54902;50.420;18.854;2023-07-30T02:23:27;100777.07;;;18.34;68.42
55044;BME280;54902;50.420;18.854;2023-07-30T02:23:59;100778.98;;;18.34;68.44
55044;BME280;54902;50.420;18.854;2023-07-30T02:24:30;100780.02;;;18.33;68.47
55044;BME280;54902;50.420;18.854;2023-07-30T02:25:01;100784.52;;;18.34;68.45
55044;BME280;54902;50.420;18.854;2023-07-30T02:25:32;100781.93;;;18.32;68.50
55044;BME280;54902;50.420;18.854;2023-07-30T02:26:03;100780.87;;;18.33;68.52
55044;BME280;54902;50.420;18.854;2023-07-30T02:26:34;100781.93;;;18.32;68.51
55044;BME280;54902;50.420;18.854;2023-07-30T02:27:05;100782.08;;;18.31;68.51
55044;BME280;54902;50.420;18.854;2023-07-30T02:27:36;100783.99;;;18.30;68.53
55044;BME280;54902;50.420;18.854;2023-07-30T02:28:07;100765.50;;;18.23;68.53
55044;BME280;54902;50.420;18.854;2023-07-30T02:28:37;100775.03;;;18.28;68.50
55044;BME280;54902;50.420;18.854;2023-07-30T02:29:08;100780.55;;;18.28;68.49
55044;BME280;54902;50.420;18.854;2023-07-30T02:29:39;100780.55;;;18.28;68.52
55044;BME280;54902;50.420;18.854;2023-07-30T02:30:10;100778.84;;;18.27;68.53
55044;BME280;54902;50.420;18.854;2023-07-30T02:30:41;100784.36;;;18.27;68.50
55044;BME280;54902;50.420;18.854;2023-07-30T02:31:12;100779.16;;;18.24;68.50
55044;BME280;54902;50.420;18.854;2023-07-30T02:31:44;100791.11;;;18.25;68.50
55044;BME280;54902;50.420;18.854;2023-07-30T02:32:15;100784.69;;;18.24;68.49
55044;BME280;54902;50.420;18.854;2023-07-30T02:32:46;100776.57;;;18.23;68.45
55044;BME280;54902;50.420;18.854;2023-07-30T02:33:17;100786.79;;;18.22;68.47
55044;BME280;54902;50.420;18.854;2023-07-30T02:33:48;100785.06;;;18.21;68.52
55044;BME280;54902;50.420;18.854;2023-07-30T02:34:19;100784.20;;;18.21;68.53
55044;BME280;54902;50.420;18.854;2023-07-30T02:34:50;100777.79;;;18.20;68.54
55044;BME280;54902;50.420;18.854;2023-07-30T02:35:21;100781.63;;;18.19;68.54
55044;BME280;54902;50.420;18.854;2023-07-30T02:35:52;100785.42;;;18.18;68.53
55044;BME280;54902;50.420;18.854;2023-07-30T02:36:24;100783.69;;;18.17;68.56
55044;BME280;54902;50.420;18.854;2023-07-30T02:36:55;100783.69;;;18.17;68.53
55044;BME280;54902;50.420;18.854;2023-07-30T02:37:25;100781.95;;;18.16;68.54
55044;BME280;54902;50.420;18.854;2023-07-30T02:37:56;100780.22;;;18.15;68.50
55044;BME280;54902;50.420;18.854;2023-07-30T02:38:27;100786.77;;;18.14;68.49
55044;BME280;54902;50.420;18.854;2023-07-30T02:38:58;100777.59;;;18.14;68.51
55044;BME280;54902;50.420;18.854;2023-07-30T02:39:29;100776.75;;;18.13;68.53
55044;BME280;54902;50.420;18.854;2023-07-30T02:40:00;100776.08;;;18.11;68.53
55044;BME280;54902;50.420;18.854;2023-07-30T02:40:35;100778.84;;;18.11;68.55
55044;BME280;54902;50.420;18.854;2023-07-30T02:41:06;100773.31;;;18.11;68.52
55044;BME280;54902;50.420;18.854;2023-07-30T02:41:36;100783.49;;;18.11;68.44
55044;BME280;54902;50.420;18.854;2023-07-30T02:42:07;100778.99;;;18.10;68.51
55044;BME280;54902;50.420;18.854;2023-07-30T02:42:38;100776.23;;;18.10;68.52